sensor_id;sensor_type;location;lat;lon;timestamp;P1;durP1;ratioP1;P2;durP2;ratioP2
17725;SDS011;8983;53.156;17.960;2022-12-15T00:02:15;100.20;;;35.83;;
17725;SDS011;8983;53.156;17.960;2022-12-15T00:05:00;90.33;;;35.70;;
17725;SDS011;8983;53.156;17.960;2022-12-15T00:07:46;85.83;;;34.53;;
17725;SDS011;8983;53.156;17.960;2022-12-15T00:10:31;89.73;;;36.73;;
17725;SDS011;8983;53.156;17.960;2022-12-15T00:13:20;97.37;;;37.53;;
17725;SDS011;8983;53.156;17.960;2022-12-15T00:16:06;91.37;;;35.47;;
17725;SDS011;8983;53.156;17.960;2022-12-15T00:18:52;76.90;;;33.23;;
17725;SDS011;8983;53.156;17.960;2022-12-15T00:21:37;78.77;;;30.30;;
17725;SDS011;8983;53.156;17.960;2022-12-15T00:24:23;85.03;;;33.03;;
17725;SDS011;8983;53.156;17.960;2022-12-15T00:27:08;94.17;;;32.93;;
17725;SDS011;8983;53.156;17.960;2022-12-15T00:29:55;85.33;;;32.73;;
17725;SDS011;8983;53.156;17.960;2022-12-15T00:32:40;85.17;;;30.17;;
17725;SDS011;8983;53.156;17.960;2022-12-15T00:35:26;83.57;;;31.97;;
17725;SDS011;8983;53.156;17.960;2022-12-15T00:38:13;73.40;;;30.87;;
17725;SDS011;8983;53.156;17.960;2022-12-15T00:40:59;79.80;;;33.27;;
17725;SDS011;8983;53.156;17.960;2022-12-15T00:43:28;81.07;;;32.50;;
17725;SDS011;8983;53.156;17.960;2022-12-15T00:45:59;96.97;;;33.40;;
17725;SDS011;8983;53.156;17.960;2022-12-15T00:48:45;74.43;;;31.93;;
17725;SDS011;8983;53.156;17.960;2022-12-15T00:51:14;72.13;;;31.80;;
17725;SDS011;8983;53.156;17.960;2022-12-15T00:53:42;98.07;;;39.80;;
17725;SDS011;8983;53.156;17.960;2022-12-15T00:56:27;95.17;;;34.23;;
17725;SDS011;8983;53.156;17.960;2022-12-15T00:59:13;88.13;;;34.83;;
17725;SDS011;8983;53.156;17.960;2022-12-15T01:02:01;77.07;;;31.13;;
17725;SDS011;8983;53.156;17.960;2022-12-15T01:04:48;74.77;;;31.00;;
17725;SDS011;8983;53.156;17.960;2022-12-15T01:07:33;83.87;;;30.47;;
17725;SDS011;8983;53.156;17.960;2022-12-15T01:10:19;80.53;;;32.03;;
17725;SDS011;8983;53.156;17.960;2022-12-15T01:13:04;86.13;;;32.93;;
17725;SDS011;8983;53.156;17.960;2022-12-15T01:15:50;69.80;;;30.57;;
17725;SDS011;8983;53.156;17.960;2022-12-15T01:18:37;68.37;;;30.67;;
17725;SDS011;8983;53.156;17.960;2022-12-15T01:21:22;67.67;;;27.77;;
17725;SDS011;8983;53.156;17.960;2022-12-15T01:23:51;82.17;;;29.93;;
17725;SDS011;8983;53.156;17.960;2022-12-15T01:26:19;77.23;;;29.60;;
17725;SDS011;8983;53.156;17.960;2022-12-15T01:28:47;68.70;;;28.30;;
17725;SDS011;8983;53.156;17.960;2022-12-15T01:31:15;60.23;;;28.23;;
17725;SDS011;8983;53.156;17.960;2022-12-15T01:33:44;68.77;;;27.13;;
17725;SDS011;8983;53.156;17.960;2022-12-15T01:36:12;58.30;;;27.30;;
17725;SDS011;8983;53.156;17.960;2022-12-15T01:38:40;71.87;;;29.30;;
17725;SDS011;8983;53.156;17.960;2022-12-15T01:41:13;66.60;;;28.37;;
17725;SDS011;8983;53.156;17.960;2022-12-15T01:43:40;53.13;;;25.97;;
17725;SDS011;8983;53.156;17.960;2022-12-15T01:46:08;67.03;;;27.73;;
17725;SDS011;8983;53.156;17.960;2022-12-15T01:48:39;68.00;;;27.93;;
17725;SDS011;8983;53.156;17.960;2022-12-15T01:51:15;70.80;;;26.13;;
17725;SDS011;8983;53.156;17.960;2022-12-15T01:53:50;62.47;;;27.70;;
17725;SDS011;8983;53.156;17.960;2022-12-15T01:56:21;61.53;;;26.70;;
17725;SDS011;8983;53.156;17.960;2022-12-15T01:58:52;71.80;;;27.50;;
17725;SDS011;8983;53.156;17.960;2022-12-15T02:01:22;69.60;;;27.73;;
17725;SDS011;8983;53.156;17.960;2022-12-15T02:03:50;62.63;;;26.10;;
17725;SDS011;8983;53.156;17.960;2022-12-15T02:06:20;52.83;;;25.80;;
17725;SDS011;8983;53.156;17.960;2022-12-15T02:08:51;59.43;;;25.80;;
17725;SDS011;8983;53.156;17.960;2022-12-15T02:11:26;64.33;;;28.10;;
17725;SDS011;8983;53.156;17.960;2022-12-15T02:14:11;72.57;;;27.57;;
17725;SDS011;8983;53.156;17.960;2022-12-15T02:16:50;71.03;;;26.93;;
17725;SDS011;8983;53.156;17.960;2022-12-15T02:22:55;62.83;;;25.27;;
17725;SDS011;8983;53.156;17.960;2022-12-15T02:25:43;58.97;;;25.00;;
17725;SDS011;8983;53.156;17.960;2022-12-15T02:28:28;65.97;;;28.27;;
17725;SDS011;8983;53.156;17.960;2022-12-15T02:31:04;63.10;;;27.73;;
17725;SDS011;8983;53.156;17.960;2022-12-15T02:33:53;65.07;;;27.23;;
17725;SDS011;8983;53.156;17.960;2022-12-15T02:36:28;77.10;;;29.93;;
17725;SDS011;8983;53.156;17.960;2022-12-15T02:39:03;53.57;;;24.60;;
17725;SDS011;8983;53.156;17.960;2022-12-15T02:41:32;62.77;;;25.53;;
17725;SDS011;8983;53.156;17.960;2022-12-15T02:44:04;54.97;;;24.17;;
17725;SDS011;8983;53.156;17.960;2022-12-15T02:46:40;55.10;;;24.70;;
17725;SDS011;8983;53.156;17.960;2022-12-15T02:49:21;66.67;;;27.30;;
17725;SDS011;8983;53.156;17.960;2022-12-15T02:52:03;57.33;;;23.30;;
17725;SDS011;8983;53.156;17.960;2022-12-15T02:54:48;51.57;;;23.97;;
17725;SDS011;8983;53.156;17.960;2022-12-15T02:57:31;62.67;;;26.43;;
17725;SDS011;8983;53.156;17.960;2022-12-15T03:00:07;53.57;;;23.93;;
17725;SDS011;8983;53.156;17.960;2022-12-15T03:02:39;54.67;;;22.80;;
17725;SDS011;8983;53.156;17.960;2022-12-15T03:05:11;56.00;;;27.13;;
17725;SDS011;8983;53.156;17.960;2022-12-15T03:07:40;53.70;;;24.47;;
17725;SDS011;8983;53.156;17.960;2022-12-15T03:10:09;57.70;;;24.67;;
17725;SDS011;8983;53.156;17.960;2022-12-15T03:12:39;70.73;;;25.73;;
17725;SDS011;8983;53.156;17.960;2022-12-15T03:15:07;55.63;;;24.23;;
17725;SDS011;8983;53.156;17.960;2022-12-15T03:17:37;53.17;;;23.87;;
17725;SDS011;8983;53.156;17.960;2022-12-15T03:20:06;49.83;;;23.67;;
17725;SDS011;8983;53.156;17.960;2022-12-15T03:22:35;85.20;;;32.97;;
17725;SDS011;8983;53.156;17.960;2022-12-15T03:25:04;85.27;;;30.97;;
17725;SDS011;8983;53.156;17.960;2022-12-15T03:27:32;70.37;;;29.90;;
17725;SDS011;8983;53.156;17.960;2022-12-15T03:30:03;68.67;;;27.40;;
17725;SDS011;8983;53.156;17.960;2022-12-15T03:32:32;64.53;;;24.37;;
17725;SDS011;8983;53.156;17.960;2022-12-15T03:35:01;51.00;;;23.67;;
17725;SDS011;8983;53.156;17.960;2022-12-15T03:37:30;61.63;;;24.23;;
17725;SDS011;8983;53.156;17.960;2022-12-15T03:39:58;79.47;;;28.17;;
17725;SDS011;8983;53.156;17.960;2022-12-15T03:42:26;67.40;;;26.20;;
17725;SDS011;8983;53.156;17.960;2022-12-15T03:45:23;98.90;;;33.17;;
17725;SDS011;8983;53.156;17.960;2022-12-15T03:47:53;70.80;;;28.73;;
17725;SDS011;8983;53.156;17.960;2022-12-15T03:50:25;68.57;;;28.40;;
17725;SDS011;8983;53.156;17.960;2022-12-15T03:52:55;74.10;;;28.63;;
17725;SDS011;8983;53.156;17.960;2022-12-15T03:55:24;57.43;;;25.60;;
17725;SDS011;8983;53.156;17.960;2022-12-15T03:57:54;65.83;;;26.03;;
17725;SDS011;8983;53.156;17.960;2022-12-15T04:00:22;56.20;;;25.37;;
17725;SDS011;8983;53.156;17.960;2022-12-15T04:02:51;50.50;;;24.63;;
17725;SDS011;8983;53.156;17.960;2022-12-15T04:05:20;50.67;;;24.30;;
17725;SDS011;8983;53.156;17.960;2022-12-15T04:07:52;58.13;;;24.03;;
17725;SDS011;8983;53.156;17.960;2022-12-15T04:10:21;54.87;;;23.73;;
17725;SDS011;8983;53.156;17.960;2022-12-15T04:12:57;69.07;;;26.47;;
17725;SDS011;8983;53.156;17.960;2022-12-15T04:15:25;65.53;;;27.47;;
17725;SDS011;8983;53.156;17.960;2022-12-15T04:17:54;55.07;;;26.17;;
17725;SDS011;8983;53.156;17.960;2022-12-15T04:20:22;59.10;;;26.40;;
17725;SDS011;8983;53.156;17.960;2022-12-15T04:22:52;67.80;;;26.73;;
17725;SDS011;8983;53.156;17.960;2022-12-15T04:25:21;59.00;;;25.50;;
17725;SDS011;8983;53.156;17.960;2022-12-15T04:28:09;67.10;;;27.33;;
17725;SDS011;8983;53.156;17.960;2022-12-15T04:30:56;70.67;;;26.77;;
17725;SDS011;8983;53.156;17.960;2022-12-15T04:33:45;59.43;;;24.63;;
17725;SDS011;8983;53.156;17.960;2022-12-15T04:36:33;79.07;;;29.03;;
17725;SDS011;8983;53.156;17.960;2022-12-15T04:39:20;159.40;;;50.23;;
17725;SDS011;8983;53.156;17.960;2022-12-15T04:42:06;190.10;;;56.40;;
17725;SDS011;8983;53.156;17.960;2022-12-15T04:44:52;84.37;;;28.50;;
17725;SDS011;8983;53.156;17.960;2022-12-15T04:47:46;63.90;;;24.93;;
17725;SDS011;8983;53.156;17.960;2022-12-15T04:50:31;57.43;;;26.03;;
17725;SDS011;8983;53.156;17.960;2022-12-15T04:53:17;85.57;;;28.23;;
17725;SDS011;8983;53.156;17.960;2022-12-15T04:56:08;70.70;;;27.17;;
17725;SDS011;8983;53.156;17.960;2022-12-15T04:58:54;68.13;;;28.73;;
17725;SDS011;8983;53.156;17.960;2022-12-15T05:01:40;69.67;;;27.43;;
17725;SDS011;8983;53.156;17.960;2022-12-15T05:04:25;62.70;;;25.70;;
17725;SDS011;8983;53.156;17.960;2022-12-15T05:07:11;65.63;;;27.03;;
17725;SDS011;8983;53.156;17.960;2022-12-15T05:09:56;66.87;;;27.70;;
17725;SDS011;8983;53.156;17.960;2022-12-15T05:12:43;63.90;;;28.33;;
17725;SDS011;8983;53.156;17.960;2022-12-15T05:15:30;62.00;;;27.07;;
17725;SDS011;8983;53.156;17.960;2022-12-15T05:18:16;69.20;;;27.30;;
17725;SDS011;8983;53.156;17.960;2022-12-15T05:21:01;128.03;;;47.43;;
17725;SDS011;8983;53.156;17.960;2022-12-15T05:23:47;96.80;;;35.57;;
17725;SDS011;8983;53.156;17.960;2022-12-15T05:26:33;70.83;;;27.80;;
17725;SDS011;8983;53.156;17.960;2022-12-15T05:29:20;82.77;;;29.70;;
17725;SDS011;8983;53.156;17.960;2022-12-15T05:32:05;68.40;;;29.57;;
17725;SDS011;8983;53.156;17.960;2022-12-15T05:34:34;84.57;;;30.80;;
17725;SDS011;8983;53.156;17.960;2022-12-15T05:37:03;81.93;;;31.40;;
17725;SDS011;8983;53.156;17.960;2022-12-15T05:39:32;82.20;;;32.03;;
17725;SDS011;8983;53.156;17.960;2022-12-15T05:42:00;79.87;;;29.83;;
17725;SDS011;8983;53.156;17.960;2022-12-15T05:44:30;80.77;;;30.43;;
17725;SDS011;8983;53.156;17.960;2022-12-15T05:46:58;100.10;;;33.50;;
17725;SDS011;8983;53.156;17.960;2022-12-15T05:49:26;98.90;;;34.80;;
17725;SDS011;8983;53.156;17.960;2022-12-15T05:51:54;96.20;;;36.37;;
17725;SDS011;8983;53.156;17.960;2022-12-15T05:54:22;97.37;;;34.77;;
17725;SDS011;8983;53.156;17.960;2022-12-15T05:56:50;101.87;;;34.40;;
17725;SDS011;8983;53.156;17.960;2022-12-15T05:59:19;128.43;;;46.87;;
17725;SDS011;8983;53.156;17.960;2022-12-15T06:01:48;108.07;;;38.37;;
17725;SDS011;8983;53.156;17.960;2022-12-15T06:04:16;89.00;;;34.10;;
17725;SDS011;8983;53.156;17.960;2022-12-15T06:06:44;101.20;;;37.53;;
17725;SDS011;8983;53.156;17.960;2022-12-15T06:09:12;116.50;;;38.03;;
17725;SDS011;8983;53.156;17.960;2022-12-15T06:11:41;98.73;;;35.63;;
17725;SDS011;8983;53.156;17.960;2022-12-15T06:14:09;88.67;;;31.70;;
17725;SDS011;8983;53.156;17.960;2022-12-15T06:16:37;75.00;;;30.13;;
17725;SDS011;8983;53.156;17.960;2022-12-15T06:19:18;84.97;;;31.60;;
17725;SDS011;8983;53.156;17.960;2022-12-15T06:21:46;86.57;;;32.27;;
17725;SDS011;8983;53.156;17.960;2022-12-15T06:24:14;93.60;;;31.80;;
17725;SDS011;8983;53.156;17.960;2022-12-15T06:26:42;91.63;;;32.50;;
17725;SDS011;8983;53.156;17.960;2022-12-15T06:29:10;106.57;;;37.53;;
17725;SDS011;8983;53.156;17.960;2022-12-15T06:31:39;87.40;;;32.80;;
17725;SDS011;8983;53.156;17.960;2022-12-15T06:34:10;96.43;;;34.67;;
17725;SDS011;8983;53.156;17.960;2022-12-15T06:36:43;101.63;;;33.60;;
17725;SDS011;8983;53.156;17.960;2022-12-15T06:39:12;80.07;;;29.97;;
17725;SDS011;8983;53.156;17.960;2022-12-15T06:41:41;84.83;;;31.27;;
17725;SDS011;8983;53.156;17.960;2022-12-15T06:44:11;97.40;;;35.10;;
17725;SDS011;8983;53.156;17.960;2022-12-15T06:46:40;99.67;;;32.87;;
17725;SDS011;8983;53.156;17.960;2022-12-15T06:49:09;87.43;;;30.17;;
17725;SDS011;8983;53.156;17.960;2022-12-15T06:51:37;96.37;;;33.17;;
17725;SDS011;8983;53.156;17.960;2022-12-15T06:54:08;91.47;;;32.43;;
17725;SDS011;8983;53.156;17.960;2022-12-15T06:56:37;87.73;;;34.53;;
17725;SDS011;8983;53.156;17.960;2022-12-15T06:59:05;88.87;;;34.40;;
17725;SDS011;8983;53.156;17.960;2022-12-15T07:01:34;86.73;;;29.93;;
17725;SDS011;8983;53.156;17.960;2022-12-15T07:04:02;76.07;;;28.00;;
17725;SDS011;8983;53.156;17.960;2022-12-15T07:06:31;75.17;;;29.70;;
17725;SDS011;8983;53.156;17.960;2022-12-15T07:09:03;68.70;;;28.10;;
17725;SDS011;8983;53.156;17.960;2022-12-15T07:11:34;85.20;;;29.17;;
17725;SDS011;8983;53.156;17.960;2022-12-15T07:14:02;73.20;;;28.47;;
17725;SDS011;8983;53.156;17.960;2022-12-15T07:16:31;75.20;;;28.57;;
17725;SDS011;8983;53.156;17.960;2022-12-15T07:18:59;85.30;;;27.33;;
17725;SDS011;8983;53.156;17.960;2022-12-15T07:21:27;70.37;;;26.67;;
17725;SDS011;8983;53.156;17.960;2022-12-15T07:23:56;77.93;;;27.70;;
17725;SDS011;8983;53.156;17.960;2022-12-15T07:26:25;81.33;;;30.97;;
17725;SDS011;8983;53.156;17.960;2022-12-15T07:28:55;75.27;;;28.80;;
17725;SDS011;8983;53.156;17.960;2022-12-15T07:31:23;93.03;;;31.67;;
17725;SDS011;8983;53.156;17.960;2022-12-15T07:33:51;70.90;;;28.30;;
17725;SDS011;8983;53.156;17.960;2022-12-15T07:36:20;74.53;;;31.27;;
17725;SDS011;8983;53.156;17.960;2022-12-15T07:38:48;77.30;;;30.97;;
17725;SDS011;8983;53.156;17.960;2022-12-15T07:41:17;78.97;;;29.33;;
17725;SDS011;8983;53.156;17.960;2022-12-15T07:43:46;76.87;;;30.40;;
17725;SDS011;8983;53.156;17.960;2022-12-15T07:46:15;71.67;;;30.03;;
17725;SDS011;8983;53.156;17.960;2022-12-15T07:48:44;80.77;;;32.00;;
17725;SDS011;8983;53.156;17.960;2022-12-15T07:51:16;74.83;;;29.83;;
17725;SDS011;8983;53.156;17.960;2022-12-15T07:53:46;73.77;;;29.67;;
17725;SDS011;8983;53.156;17.960;2022-12-15T07:56:16;81.63;;;32.13;;
17725;SDS011;8983;53.156;17.960;2022-12-15T07:58:44;84.67;;;32.63;;
17725;SDS011;8983;53.156;17.960;2022-12-15T08:01:13;83.03;;;33.27;;
17725;SDS011;8983;53.156;17.960;2022-12-15T08:03:43;72.80;;;30.37;;
17725;SDS011;8983;53.156;17.960;2022-12-15T08:06:12;93.50;;;33.50;;
17725;SDS011;8983;53.156;17.960;2022-12-15T08:08:42;82.53;;;30.60;;
17725;SDS011;8983;53.156;17.960;2022-12-15T08:11:16;83.97;;;33.47;;
17725;SDS011;8983;53.156;17.960;2022-12-15T08:13:45;87.00;;;30.77;;
17725;SDS011;8983;53.156;17.960;2022-12-15T08:16:33;91.00;;;32.53;;
17725;SDS011;8983;53.156;17.960;2022-12-15T08:19:03;90.20;;;31.47;;
17725;SDS011;8983;53.156;17.960;2022-12-15T08:21:33;90.97;;;32.37;;
17725;SDS011;8983;53.156;17.960;2022-12-15T08:24:01;92.47;;;32.37;;
17725;SDS011;8983;53.156;17.960;2022-12-15T08:26:29;111.57;;;36.83;;
17725;SDS011;8983;53.156;17.960;2022-12-15T08:28:59;97.90;;;34.13;;
17725;SDS011;8983;53.156;17.960;2022-12-15T08:31:49;88.63;;;33.00;;
17725;SDS011;8983;53.156;17.960;2022-12-15T08:34:19;80.83;;;32.03;;
17725;SDS011;8983;53.156;17.960;2022-12-15T08:36:47;83.67;;;30.80;;
17725;SDS011;8983;53.156;17.960;2022-12-15T08:39:15;85.70;;;33.63;;
17725;SDS011;8983;53.156;17.960;2022-12-15T08:41:43;95.73;;;33.50;;
17725;SDS011;8983;53.156;17.960;2022-12-15T08:44:11;59.43;;;23.73;;
17725;SDS011;8983;53.156;17.960;2022-12-15T08:46:42;86.00;;;31.70;;
17725;SDS011;8983;53.156;17.960;2022-12-15T08:49:10;64.97;;;29.60;;
17725;SDS011;8983;53.156;17.960;2022-12-15T08:51:47;75.13;;;30.63;;
17725;SDS011;8983;53.156;17.960;2022-12-15T08:54:16;75.83;;;29.37;;
17725;SDS011;8983;53.156;17.960;2022-12-15T08:56:45;89.00;;;30.67;;
17725;SDS011;8983;53.156;17.960;2022-12-15T08:59:13;75.33;;;29.53;;
17725;SDS011;8983;53.156;17.960;2022-12-15T09:01:41;70.33;;;30.83;;
17725;SDS011;8983;53.156;17.960;2022-12-15T09:04:10;86.60;;;31.40;;
17725;SDS011;8983;53.156;17.960;2022-12-15T09:06:38;81.73;;;30.97;;
17725;SDS011;8983;53.156;17.960;2022-12-15T09:09:09;82.70;;;31.87;;
17725;SDS011;8983;53.156;17.960;2022-12-15T09:11:39;89.97;;;33.30;;
17725;SDS011;8983;53.156;17.960;2022-12-15T09:14:07;102.73;;;39.33;;
17725;SDS011;8983;53.156;17.960;2022-12-15T09:16:35;84.37;;;33.97;;
17725;SDS011;8983;53.156;17.960;2022-12-15T09:19:03;95.30;;;34.00;;
17725;SDS011;8983;53.156;17.960;2022-12-15T09:21:32;91.27;;;34.30;;
17725;SDS011;8983;53.156;17.960;2022-12-15T09:24:01;79.87;;;32.77;;
17725;SDS011;8983;53.156;17.960;2022-12-15T09:26:32;77.30;;;32.70;;
17725;SDS011;8983;53.156;17.960;2022-12-15T09:29:00;82.90;;;34.67;;
17725;SDS011;8983;53.156;17.960;2022-12-15T09:31:29;79.23;;;33.40;;
17725;SDS011;8983;53.156;17.960;2022-12-15T09:33:59;84.07;;;34.57;;
17725;SDS011;8983;53.156;17.960;2022-12-15T09:36:28;90.63;;;35.00;;
17725;SDS011;8983;53.156;17.960;2022-12-15T09:38:58;80.97;;;32.10;;
17725;SDS011;8983;53.156;17.960;2022-12-15T09:41:27;108.03;;;36.63;;
17725;SDS011;8983;53.156;17.960;2022-12-15T09:43:58;94.47;;;35.47;;
17725;SDS011;8983;53.156;17.960;2022-12-15T09:46:36;86.33;;;33.93;;
17725;SDS011;8983;53.156;17.960;2022-12-15T09:49:18;92.63;;;34.00;;
17725;SDS011;8983;53.156;17.960;2022-12-15T09:52:01;97.17;;;37.00;;
17725;SDS011;8983;53.156;17.960;2022-12-15T09:54:36;94.07;;;34.73;;
17725;SDS011;8983;53.156;17.960;2022-12-15T09:57:09;103.80;;;36.50;;
17725;SDS011;8983;53.156;17.960;2022-12-15T09:59:56;103.07;;;37.83;;
17725;SDS011;8983;53.156;17.960;2022-12-15T10:05:45;96.43;;;36.13;;
17725;SDS011;8983;53.156;17.960;2022-12-15T10:08:41;164.30;;;54.23;;
17725;SDS011;8983;53.156;17.960;2022-12-15T10:11:39;112.63;;;42.77;;
17725;SDS011;8983;53.156;17.960;2022-12-15T10:14:18;111.23;;;37.67;;
17725;SDS011;8983;53.156;17.960;2022-12-15T10:16:57;124.33;;;40.87;;
17725;SDS011;8983;53.156;17.960;2022-12-15T10:19:33;108.50;;;37.37;;
17725;SDS011;8983;53.156;17.960;2022-12-15T10:22:09;100.63;;;38.53;;
17725;SDS011;8983;53.156;17.960;2022-12-15T10:24:39;98.77;;;36.03;;
17725;SDS011;8983;53.156;17.960;2022-12-15T10:27:32;111.50;;;39.37;;
17725;SDS011;8983;53.156;17.960;2022-12-15T10:30:14;126.13;;;40.73;;
17725;SDS011;8983;53.156;17.960;2022-12-15T10:32:46;108.63;;;41.67;;
17725;SDS011;8983;53.156;17.960;2022-12-15T10:35:18;110.17;;;42.10;;
17725;SDS011;8983;53.156;17.960;2022-12-15T10:37:48;114.50;;;40.07;;
17725;SDS011;8983;53.156;17.960;2022-12-15T10:40:17;120.10;;;40.70;;
17725;SDS011;8983;53.156;17.960;2022-12-15T10:43:11;113.10;;;40.03;;
17725;SDS011;8983;53.156;17.960;2022-12-15T10:45:40;114.77;;;39.20;;
17725;SDS011;8983;53.156;17.960;2022-12-15T10:48:17;138.93;;;43.90;;
17725;SDS011;8983;53.156;17.960;2022-12-15T10:50:46;120.70;;;40.90;;
17725;SDS011;8983;53.156;17.960;2022-12-15T10:56:01;111.97;;;40.93;;
17725;SDS011;8983;53.156;17.960;2022-12-15T10:58:34;97.33;;;38.30;;
17725;SDS011;8983;53.156;17.960;2022-12-15T11:01:15;102.23;;;38.90;;
17725;SDS011;8983;53.156;17.960;2022-12-15T11:03:47;86.40;;;34.10;;
17725;SDS011;8983;53.156;17.960;2022-12-15T11:06:18;92.73;;;34.47;;
17725;SDS011;8983;53.156;17.960;2022-12-15T11:08:49;108.53;;;41.33;;
17725;SDS011;8983;53.156;17.960;2022-12-15T11:14:39;84.37;;;36.50;;
17725;SDS011;8983;53.156;17.960;2022-12-15T11:17:13;84.73;;;35.40;;
17725;SDS011;8983;53.156;17.960;2022-12-15T11:19:46;83.97;;;33.43;;
17725;SDS011;8983;53.156;17.960;2022-12-15T11:22:30;82.70;;;34.10;;
17725;SDS011;8983;53.156;17.960;2022-12-15T11:25:13;89.73;;;35.93;;
17725;SDS011;8983;53.156;17.960;2022-12-15T11:27:49;102.40;;;38.30;;
17725;SDS011;8983;53.156;17.960;2022-12-15T11:30:20;108.33;;;41.13;;
17725;SDS011;8983;53.156;17.960;2022-12-15T11:32:53;106.67;;;40.67;;
17725;SDS011;8983;53.156;17.960;2022-12-15T11:35:27;83.43;;;39.57;;
17725;SDS011;8983;53.156;17.960;2022-12-15T11:38:07;133.73;;;50.90;;
17725;SDS011;8983;53.156;17.960;2022-12-15T11:40:45;96.83;;;43.20;;
17725;SDS011;8983;53.156;17.960;2022-12-15T11:43:26;100.53;;;40.10;;
17725;SDS011;8983;53.156;17.960;2022-12-15T11:46:08;134.20;;;49.73;;
17725;SDS011;8983;53.156;17.960;2022-12-15T11:48:48;138.67;;;53.37;;
17725;SDS011;8983;53.156;17.960;2022-12-15T11:51:30;104.33;;;42.60;;
17725;SDS011;8983;53.156;17.960;2022-12-15T11:54:09;105.47;;;43.47;;
17725;SDS011;8983;53.156;17.960;2022-12-15T11:56:44;100.83;;;43.20;;
17725;SDS011;8983;53.156;17.960;2022-12-15T11:59:31;103.93;;;44.30;;
17725;SDS011;8983;53.156;17.960;2022-12-15T12:02:25;102.73;;;44.30;;
17725;SDS011;8983;53.156;17.960;2022-12-15T12:05:20;109.07;;;45.73;;
17725;SDS011;8983;53.156;17.960;2022-12-15T12:08:15;121.70;;;47.67;;
17725;SDS011;8983;53.156;17.960;2022-12-15T12:10:52;130.57;;;50.27;;
17725;SDS011;8983;53.156;17.960;2022-12-15T12:13:27;118.43;;;46.40;;
17725;SDS011;8983;53.156;17.960;2022-12-15T12:16:03;109.67;;;46.40;;
17725;SDS011;8983;53.156;17.960;2022-12-15T12:18:38;94.63;;;42.10;;
17725;SDS011;8983;53.156;17.960;2022-12-15T12:21:16;103.77;;;45.53;;
17725;SDS011;8983;53.156;17.960;2022-12-15T12:23:50;98.07;;;41.40;;
17725;SDS011;8983;53.156;17.960;2022-12-15T12:26:25;94.67;;;40.83;;
17725;SDS011;8983;53.156;17.960;2022-12-15T12:28:59;106.77;;;44.47;;
17725;SDS011;8983;53.156;17.960;2022-12-15T12:31:34;104.80;;;44.67;;
17725;SDS011;8983;53.156;17.960;2022-12-15T12:34:31;109.07;;;44.47;;
17725;SDS011;8983;53.156;17.960;2022-12-15T12:37:10;116.37;;;44.93;;
17725;SDS011;8983;53.156;17.960;2022-12-15T12:39:44;119.73;;;44.73;;
17725;SDS011;8983;53.156;17.960;2022-12-15T12:42:15;110.70;;;45.70;;
17725;SDS011;8983;53.156;17.960;2022-12-15T12:44:47;119.33;;;46.07;;
17725;SDS011;8983;53.156;17.960;2022-12-15T12:47:17;113.27;;;45.20;;
17725;SDS011;8983;53.156;17.960;2022-12-15T12:49:51;122.13;;;49.10;;
17725;SDS011;8983;53.156;17.960;2022-12-15T12:52:22;113.80;;;47.30;;
17725;SDS011;8983;53.156;17.960;2022-12-15T12:54:56;102.97;;;43.93;;
17725;SDS011;8983;53.156;17.960;2022-12-15T12:57:32;118.67;;;48.50;;
17725;SDS011;8983;53.156;17.960;2022-12-15T13:00:22;109.60;;;42.67;;
17725;SDS011;8983;53.156;17.960;2022-12-15T13:05:46;113.93;;;46.03;;
17725;SDS011;8983;53.156;17.960;2022-12-15T13:08:46;133.00;;;45.73;;
17725;SDS011;8983;53.156;17.960;2022-12-15T13:14:42;112.80;;;43.90;;
17725;SDS011;8983;53.156;17.960;2022-12-15T13:17:21;109.50;;;43.33;;
17725;SDS011;8983;53.156;17.960;2022-12-15T13:22:51;102.90;;;43.43;;
17725;SDS011;8983;53.156;17.960;2022-12-15T13:25:33;124.33;;;49.80;;
17725;SDS011;8983;53.156;17.960;2022-12-15T13:28:22;109.20;;;45.10;;
17725;SDS011;8983;53.156;17.960;2022-12-15T13:33:53;120.47;;;47.03;;
17725;SDS011;8983;53.156;17.960;2022-12-15T13:39:34;108.97;;;44.47;;
17725;SDS011;8983;53.156;17.960;2022-12-15T13:42:27;114.27;;;46.77;;
17725;SDS011;8983;53.156;17.960;2022-12-15T13:48:36;118.47;;;46.23;;
17725;SDS011;8983;53.156;17.960;2022-12-15T13:51:18;109.13;;;45.67;;
17725;SDS011;8983;53.156;17.960;2022-12-15T13:53:54;99.87;;;44.10;;
17725;SDS011;8983;53.156;17.960;2022-12-15T13:56:38;106.93;;;43.23;;
17725;SDS011;8983;53.156;17.960;2022-12-15T13:59:12;99.20;;;40.23;;
17725;SDS011;8983;53.156;17.960;2022-12-15T14:01:47;86.37;;;37.53;;
17725;SDS011;8983;53.156;17.960;2022-12-15T14:04:18;93.53;;;39.20;;
17725;SDS011;8983;53.156;17.960;2022-12-15T14:06:48;92.30;;;37.67;;
17725;SDS011;8983;53.156;17.960;2022-12-15T14:09:19;90.27;;;38.63;;
17725;SDS011;8983;53.156;17.960;2022-12-15T14:11:50;74.13;;;33.70;;
17725;SDS011;8983;53.156;17.960;2022-12-15T14:14:21;68.93;;;30.97;;
17725;SDS011;8983;53.156;17.960;2022-12-15T14:16:52;65.20;;;28.40;;
17725;SDS011;8983;53.156;17.960;2022-12-15T14:19:25;64.67;;;27.43;;
17725;SDS011;8983;53.156;17.960;2022-12-15T14:22:15;56.40;;;27.57;;
17725;SDS011;8983;53.156;17.960;2022-12-15T14:24:58;65.70;;;26.93;;
17725;SDS011;8983;53.156;17.960;2022-12-15T14:27:30;65.87;;;29.63;;
17725;SDS011;8983;53.156;17.960;2022-12-15T14:30:09;57.73;;;26.97;;
17725;SDS011;8983;53.156;17.960;2022-12-15T14:32:50;63.97;;;27.30;;
17725;SDS011;8983;53.156;17.960;2022-12-15T14:35:28;59.93;;;26.83;;
17725;SDS011;8983;53.156;17.960;2022-12-15T14:38:04;67.53;;;27.20;;
17725;SDS011;8983;53.156;17.960;2022-12-15T14:40:34;71.70;;;29.07;;
17725;SDS011;8983;53.156;17.960;2022-12-15T14:43:03;65.40;;;28.60;;
17725;SDS011;8983;53.156;17.960;2022-12-15T14:45:36;65.03;;;27.60;;
17725;SDS011;8983;53.156;17.960;2022-12-15T14:48:05;69.73;;;27.10;;
17725;SDS011;8983;53.156;17.960;2022-12-15T14:50:58;63.83;;;28.00;;
17725;SDS011;8983;53.156;17.960;2022-12-15T14:53:29;65.50;;;27.87;;
17725;SDS011;8983;53.156;17.960;2022-12-15T14:56:10;58.93;;;25.33;;
17725;SDS011;8983;53.156;17.960;2022-12-15T14:58:40;56.70;;;23.17;;
17725;SDS011;8983;53.156;17.960;2022-12-15T15:01:19;51.20;;;24.30;;
17725;SDS011;8983;53.156;17.960;2022-12-15T15:03:56;52.80;;;23.10;;
17725;SDS011;8983;53.156;17.960;2022-12-15T15:06:30;39.37;;;20.50;;
17725;SDS011;8983;53.156;17.960;2022-12-15T15:09:03;50.87;;;23.67;;
17725;SDS011;8983;53.156;17.960;2022-12-15T15:11:43;58.13;;;24.00;;
17725;SDS011;8983;53.156;17.960;2022-12-15T15:14:12;45.27;;;20.60;;
17725;SDS011;8983;53.156;17.960;2022-12-15T15:16:43;46.13;;;22.63;;
17725;SDS011;8983;53.156;17.960;2022-12-15T15:19:14;52.73;;;23.83;;
17725;SDS011;8983;53.156;17.960;2022-12-15T15:21:47;54.80;;;24.63;;
17725;SDS011;8983;53.156;17.960;2022-12-15T15:24:20;59.70;;;25.57;;
17725;SDS011;8983;53.156;17.960;2022-12-15T15:26:50;56.07;;;24.00;;
17725;SDS011;8983;53.156;17.960;2022-12-15T15:29:32;52.07;;;24.13;;
17725;SDS011;8983;53.156;17.960;2022-12-15T15:32:05;55.50;;;24.53;;
17725;SDS011;8983;53.156;17.960;2022-12-15T15:34:42;51.30;;;22.77;;
17725;SDS011;8983;53.156;17.960;2022-12-15T15:37:14;58.80;;;25.60;;